Latest Coastal Weather Observations for Robe Airport

IDS60701

Issued at 2:21 am CDT Friday 6 March 2015 (issued every 10 minutes, with the page automatically refreshed every 10 minutes)

About coastal observations | Map of coastal stations | Coastal observations for SA | Marine services | Other Formats
Station Details ID: 026105 Name: ROBE AIRFIELD Lat: -37.18 Lon: 139.81 Height: 3.0 m
Data from the previous 72 hours. | See also: Recent months at Robe Airport
Date/Time
CDT
Temp

°C
Wind Pressure Rain
since 9am
mm
Weather Cloud Vis
km
Sea
Height
m
Swell
Dir
 
Speed
knots
Gust
knots
hPa Trend Height
m
Period
s
Dir
06/02:00am 15.1 WSW 8 15 1017.8 - 0.0 - - - - - - -
06/01:30am 14.8 WSW 9 17 1018.3 - 0.0 - - - - - - -
06/01:00am 14.8 WSW 8 13 1018.6 - 0.0 - - - - - - -
06/12:30am 14.9 WSW 9 17 1018.9 - 0.0 - - - - - - -
06/12:00am 15.2 WSW 8 13 1019.2 - 0.0 - - - - - - -
 
Date/Time
CDT
Temp

°C
Wind Pressure Rain
since 9am
mm
Weather Cloud Vis
km
Sea
Height
m
Swell
Dir
 
Speed
knots
Gust
knots
hPa Trend Height
m
Period
s
Dir
05/11:30pm 15.2 WSW 7 11 1019.4 - 0.0 - - - - - - -
05/11:00pm 14.8 WSW 5 11 1019.7 - 0.0 - - - - - - -
05/10:30pm 14.8 WSW 8 13 1019.9 - 0.0 - - - - - - -
05/10:00pm 15.2 WSW 9 14 1020.3 - 0.0 - - - - - - -
05/09:30pm 15.3 WSW 6 11 1020.2 - 0.0 - - - - - - -
05/09:00pm 15.1 WSW 7 11 1020.1 - 0.0 - - - - - - -
05/08:30pm 15.3 WSW 8 15 1020.2 - 0.0 - - - - - - -
05/08:00pm 15.3 WSW 9 15 1020.1 - 0.0 - - - - - - -
05/07:30pm 15.2 WSW 7 12 1020.2 - 0.0 - - - - - - -
05/07:00pm 15.4 WSW 6 11 1020.3 - 0.0 - - - - - - -
05/06:30pm 15.6 WSW 8 14 1020.8 - 0.0 - - - - - - -
05/06:00pm 16.1 SW 11 17 1020.6 - 0.0 - - - - - - -
05/05:30pm 16.4 WSW 11 15 1020.5 - 0.0 - - - - - - -
05/05:00pm 17.1 WSW 10 15 1020.8 - 0.0 - - - - - - -
05/04:30pm 17.2 WSW 10 16 1021.2 - 0.0 - - - - - - -
05/04:00pm 17.1 SW 10 16 1021.1 - 0.0 - - - - - - -
05/03:30pm 17.3 SW 11 16 1021.1 - 0.0 - - - - - - -
05/03:00pm 18.0 SW 12 17 1021.3 - 0.0 - - - - - - -
05/02:30pm 17.6 SSW 11 17 1021.6 - 0.0 - - - - - - -
05/02:00pm 17.9 SW 11 18 1021.7 - 0.0 - - - - - - -
05/01:30pm 18.8 SW 11 18 1021.9 - 0.0 - - - - - - -
05/01:00pm 18.5 SSW 12 18 1022.2 - 0.0 - - - - - - -
05/12:30pm 17.7 SSW 12 19 1022.6 - 0.0 - - - - - - -
05/12:00pm 17.5 SW 13 18 1022.8 - 0.0 - - - - - - -
05/11:30am 17.4 SSW 13 18 1022.8 - 0.0 - - - - - - -
05/11:00am 16.4 SSW 12 18 1022.6 - 0.0 - - - - - - -
05/10:30am 17.2 SSW 13 18 1022.5 - 0.0 - - - - - - -
05/10:00am 16.9 SSW 14 20 1022.3 - 0.0 - - - - - - -
05/09:30am 16.6 SSW 15 21 1022.3 - 0.0 - - - - - - -
05/09:00am 15.6 SSW 15 20 1021.9 - 1.2 - - - - - - -
05/08:30am 15.0 S 15 19 1021.5 - 1.2 - - - - - - -
05/08:00am 14.2 S 10 14 1020.7 - 1.2 - - - - - - -
05/07:30am 13.0 SSW 10 13 1020.4 - 1.2 - - - - - - -
05/07:00am 12.9 SSW 10 14 1020.1 - 1.2 - - - - - - -
05/06:30am 12.8 SSW 11 15 1020.0 - 1.2 - - - - - - -
05/06:00am 13.0 SSW 15 21 1019.5 - 1.2 - - - - - - -
05/05:30am 13.3 SSW 13 17 1019.0 - 1.2 - - - - - - -
05/05:00am 13.7 SSW 12 18 1018.8 - 1.2 - - - - - - -
05/04:30am 13.2 SSW 15 24 1018.9 - 1.2 - - - - - - -
05/04:00am 13.8 SSW 18 26 1018.8 - 1.2 - - - - - - -
05/03:30am 13.9 SSW 18 27 1018.4 - 1.2 - - - - - - -
05/03:17am 14.0 SSW 16 28 1018.2 - 1.2 - - - - - - -
05/03:00am 13.8 SSW 17 26 1017.9 - 1.2 - - - - - - -
05/02:56am 13.8 SSW 15 26 1017.9 - 1.2 - - - - - - -
05/02:30am 13.9 SSW 18 27 1017.7 - 1.2 - - - - - - -
05/02:07am 15.3 SSW 16 28 1017.5 - 1.2 - - - - - - -
05/02:00am 15.0 SSW 15 21 1017.3 - 1.2 - - - - - - -
05/01:52am 15.1 SSW 15 25 1017.3 - 1.2 - - - - - - -
05/01:30am 15.1 SSW 13 19 1017.4 - 1.2 - - - - - - -
05/01:11am 15.6 SW 15 25 1017.2 - 1.2 - - - - - - -
05/01:00am 15.3 SW 13 18 1017.2 - 1.2 - - - - - - -
05/12:31am 15.1 SSW 18 29 1017.1 - 1.2 - - - - - - -
05/12:30am 15.1 SSW 19 29 1017.1 - 1.2 - - - - - - -
05/12:06am 15.9 SW 17 29 1016.6 - 1.2 - - - - - - -
05/12:00am 16.2 SW 17 25 1016.5 - 1.2 Recent precip. - - - - - -
 
Date/Time
CDT
Temp

°C
Wind Pressure Rain
since 9am
mm
Weather Cloud Vis
km
Sea
Height
m
Swell
Dir
 
Speed
knots
Gust
knots
hPa Trend Height
m
Period
s
Dir
04/11:30pm 16.0 SW 12 17 1016.1 - 1.0 - - - - - - -
04/11:00pm 16.0 SW 12 20 1015.7 - 1.0 - - - - - - -
04/10:30pm 15.3 SW 13 24 1015.6 - 1.0 - - - - - - -
04/10:09pm 15.0 WSW 15 26 1015.5 - 0.8 - - - - - - -
04/10:00pm 16.1 WSW 10 21 1015.5 - 0.8 - - - - - - -
04/09:30pm 16.3 W 8 13 1014.9 - 0.8 - - - - - - -
04/09:00pm 16.1 WNW 10 16 1014.5 - 0.8 - - - - - - -
04/08:30pm 15.6 WNW 9 14 1014.3 - 0.8 - - - - - - -
04/08:00pm 16.1 WNW 10 14 1014.4 - 0.8 - - - - - - -
04/07:30pm 15.7 W 10 18 1014.4 - 0.6 - - - - - - -
04/07:00pm 17.0 WNW 10 15 1014.3 - 0.0 - - - - - - -
04/06:30pm 17.6 WNW 11 16 1014.4 - 0.0 - - - - - - -
04/06:00pm 18.1 WNW 12 18 1014.3 - 0.0 - - - - - - -
04/05:30pm 18.7 WNW 15 21 1014.6 - 0.0 - - - - - - -
04/05:00pm 19.4 NW 13 17 1014.5 - 0.0 - - - - - - -
04/04:30pm 18.6 NW 14 19 1014.7 - 0.0 - - - - - - -
04/04:00pm 20.4 WNW 15 23 1014.7 - 0.0 - - - - - - -
04/03:30pm 19.3 NW 14 19 1015.3 - 0.0 - - - - - - -
04/03:00pm 19.8 WNW 16 23 1015.6 - 0.0 - - - - - - -
04/02:30pm 20.7 NW 12 17 1015.9 - 0.0 - - - - - - -
04/02:00pm 19.4 NW 15 21 1016.1 - 0.0 - - - - - - -
04/01:30pm 17.7 WNW 15 20 1016.6 - 0.0 - - - - - - -
04/01:00pm 19.1 WNW 12 17 1016.7 - 0.0 - - - - - - -
04/12:30pm 19.4 WNW 11 17 1017.0 - 0.0 - - - - - - -
04/12:00pm 19.3 WNW 11 19 1017.0 - 0.0 - - - - - - -
04/11:30am 18.4 WNW 10 16 1017.3 - 0.0 - - - - - - -
04/11:00am 18.9 WNW 9 13 1017.3 - 0.0 - - - - - - -
04/10:30am 17.9 W 8 12 1017.5 - 0.0 - - - - - - -
04/10:00am 17.4 W 6 12 1017.4 - 0.0 - - - - - - -
04/09:30am 16.8 W 8 13 1017.2 - 0.0 - - - - - - -
04/09:00am 17.3 WNW 6 9 1017.1 - 0.0 - - - - - - -
04/08:30am 16.8 W 6 9 1017.0 - 0.0 - - - - - - -
04/08:00am 16.5 WNW 5 8 1016.6 - 0.0 - - - - - - -
04/07:30am 16.2 WNW 6 9 1016.6 - 0.0 - - - - - - -
04/07:00am 16.1 W 6 10 1016.3 - 0.0 - - - - - - -
04/06:30am 15.8 WSW 4 7 1016.3 - 0.0 - - - - - - -
04/06:00am 15.3 WSW 4 6 1016.2 - 0.0 - - - - - - -
04/05:30am 15.6 WSW 6 11 1016.1 - 0.0 - - - - - - -
04/05:00am 15.8 WSW 6 10 1016.1 - 0.0 - - - - - - -
04/04:30am 15.8 WSW 4 6 1016.3 - 0.0 - - - - - - -
04/04:00am 16.0 W 5 9 1016.4 - 0.0 - - - - - - -
04/03:30am 16.0 W 6 9 1016.7 - 0.0 - - - - - - -
04/03:00am 15.8 WSW 5 9 1016.9 - 0.0 - - - - - - -
04/02:30am 15.6 WSW 5 10 1017.4 - 0.0 - - - - - - -
04/02:00am 14.6 WSW 4 6 1017.9 - 0.0 - - - - - - -
04/01:30am 14.3 WSW 4 7 1018.0 - 0.0 - - - - - - -
04/01:00am 14.3 WSW 5 7 1018.0 - 0.0 - - - - - - -
04/12:30am 14.3 WSW 4 7 1018.2 - 0.0 - - - - - - -
04/12:00am 14.7 WSW 4 7 1018.3 - 0.0 - - - - - - -
 
Date/Time
CDT
Temp

°C
Wind Pressure Rain
since 9am
mm
Weather Cloud Vis
km
Sea
Height
m
Swell
Dir
 
Speed
knots
Gust
knots
hPa Trend Height
m
Period
s
Dir
03/11:30pm 14.4 WSW 3 5 1018.5 - 0.0 - - - - - - -
03/11:00pm 14.7 WSW 3 6 1018.9 - 0.0 - - - - - - -
03/10:30pm 14.5 WSW 4 7 1018.9 - 0.0 - - - - - - -
03/10:00pm 14.5 WSW 3 5 1018.9 - 0.0 - - - - - - -
03/09:30pm 14.6 WSW 3 4 1019.0 - 0.0 - - - - - - -
03/09:00pm 15.0 SW 3 5 1018.7 - 0.0 - - - - - - -
03/08:30pm 15.8 WSW 2 4 1018.5 - 0.0 - - - - - - -
03/08:00pm 16.7 WSW 3 5 1018.3 - 0.0 - - - - - - -
03/07:30pm 17.2 WSW 4 5 1017.9 - 0.0 - - - - - - -
03/07:00pm 17.3 WSW 5 8 1017.8 - 0.0 - - - - - - -
03/06:30pm 18.6 W 6 9 1017.7 - 0.0 - - - - - - -
03/06:00pm 18.9 WSW 6 9 1017.5 - 0.0 - - - - - - -
03/05:30pm 19.2 SW 6 10 1017.5 - 0.0 - - - - - - -
03/05:00pm 20.0 SW 6 10 1017.3 - 0.0 - - - - - - -
03/04:30pm 20.3 SW 6 12 1017.5 - 0.0 - - - - - - -
03/04:00pm 20.7 WSW 6 11 1017.6 - 0.0 - - - - - - -
03/03:30pm 20.3 SSW 9 13 1017.7 - 0.0 - - - - - - -
03/03:00pm 20.6 SSW 9 12 1018.0 - 0.0 - - - - - - -
03/02:30pm 20.6 SSW 9 13 1018.3 - 0.0 - - - - - - -
03/02:00pm 21.2 SSW 9 13 1018.3 - 0.0 - - - - - - -
03/01:30pm 20.4 SSW 10 14 1018.5 - 0.0 - - - - - - -
03/01:00pm 20.3 SW 8 12 1019.0 - 0.0 - - - - - - -
03/12:30pm 20.2 SW 8 15 1019.3 - 0.0 - - - - - - -
03/12:00pm 20.1 SSW 8 11 1019.6 - 0.0 - - - - - - -
03/11:30am 20.4 S 8 11 1019.7 - 0.0 - - - - - - -
03/11:00am 19.4 SSW 6 10 1019.7 - 0.0 - - - - - - -
03/10:30am 18.4 S 5 8 1019.6 - 0.0 - - - - - - -
03/10:00am 19.5 SSE 5 9 1019.5 - 0.0 - - - - - - -
03/09:30am 17.9 SE 4 7 1019.4 - 0.0 - - - - - - -
03/09:00am 15.6 ENE 1 4 1019.4 - 0.0 - - - - - - -
03/08:30am 13.7 CALM 0 0 1018.9 - 0.0 - - - - - - -
03/08:00am 9.9 CALM 0 0 1018.7 - 0.0 - - - - - - -
03/07:30am 6.7 CALM 0 0 1018.2 - 0.0 - - - - - - -
03/07:00am 6.4 CALM 0 0 1017.9 - 0.0 - - - - - - -
03/06:30am 7.0 CALM 0 0 1017.8 - 0.0 - - - - - - -
03/06:00am 7.0 CALM 0 0 1017.6 - 0.0 - - - - - - -
03/05:30am 8.6 CALM 0 0 1017.1 - 0.0 - - - - - - -
03/05:00am 9.8 CALM 0 0 1017.2 - 0.0 - - - - - - -
03/04:30am 10.5 SSE 1 3 1016.7 - 0.0 - - - - - - -
03/04:00am 11.4 S 3 4 1016.7 - 0.0 - - - - - - -
03/03:30am 11.4 S 3 4 1016.6 - 0.0 - - - - - - -
03/03:00am 12.3 S 3 4 1016.8 - 0.0 - - - - - - -
03/02:30am 12.6 S 3 5 1017.0 - 0.0 - - - - - - -

Other Formats:

Comma delimited format used in spreadsheet applications
http://www.bom.gov.au/fwo/IDS60701/IDS60701.95816.axf

JavaScript Object Notation format (JSON) in row-major order
http://www.bom.gov.au/fwo/IDS60701/IDS60701.95816.json